Time;durP1;ratioP1;P1;durP2;ratioP2;P2;SDS_P1;SDS_P2;PMS_P1;PMS_P2;Temp;Humidity;BMP_temperature;BMP_pressure;BME280_temperature;BME280_humidity;BME280_pressure;Samples;Min_cycle;Max_cycle;Signal;HPM_P1;HPM_P2
2021/04/11 00:02:57;;;;;;;34.88;17.98;;;;;;;3.49;52.67;101104.63;1688184;83;21334;-79
2021/04/11 00:06:03;;;;;;;45.20;21.80;;;;;;;3.47;52.71;101105.20;1686570;85;21224;-79
2021/04/11 00:09:09;;;;;;;51.98;23.27;;;;;;;3.43;52.71;101108.61;1688278;85;21229;-79
2021/04/11 00:12:16;;;;;;;46.18;22.17;;;;;;;3.41;52.65;101110.58;1688159;83;21331;-79
2021/04/11 00:15:24;;;;;;;60.60;21.15;;;;;;;3.42;52.67;101116.84;1688049;85;21213;-79
2021/04/11 00:18:30;;;;;;;40.48;20.80;;;;;;;3.42;52.71;101123.12;1688085;83;21204;-79
2021/04/11 00:21:35;;;;;;;40.48;18.87;;;;;;;3.41;52.78;101132.21;1704443;84;21284;-79
2021/04/11 00:24:41;;;;;;;41.85;20.72;;;;;;;3.40;52.81;101135.90;1694333;84;21295;-79
2021/04/11 00:27:47;;;;;;;48.45;19.82;;;;;;;3.36;52.83;101132.17;1704347;84;21320;-79
2021/04/11 00:30:54;;;;;;;40.17;20.35;;;;;;;3.34;52.94;101132.30;1671828;84;21303;-79
2021/04/11 00:33:59;;;;;;;43.13;20.80;;;;;;;3.32;53.01;101127.46;1694346;83;21750;-79
2021/04/11 00:37:05;;;;;;;44.93;21.33;;;;;;;3.29;53.23;101126.31;1744795;81;21686;-79
2021/04/11 00:40:27;;;;;;;37.63;19.45;;;;;;;3.27;53.30;101120.17;1744868;82;21297;-79
2021/04/11 00:43:36;;;;;;;35.78;19.50;;;;;;;3.27;53.41;101124.23;1720848;82;21206;-79
2021/04/11 00:46:49;;;;;;;32.25;16.50;;;;;;;3.26;53.50;101112.55;1744797;81;21277;-79
2021/04/11 00:49:55;;;;;;;35.70;18.95;;;;;;;3.26;53.59;101119.31;1744762;80;21186;-80
2021/04/11 00:53:00;;;;;;;39.05;19.42;;;;;;;3.26;53.62;101114.39;1745032;81;21332;-79
2021/04/11 00:56:07;;;;;;;36.75;17.25;;;;;;;3.28;53.71;101124.11;1744982;82;21724;-79
2021/04/11 00:59:15;;;;;;;39.73;19.42;;;;;;;3.30;53.70;101126.23;1744865;82;21297;-80
2021/04/11 01:02:20;;;;;;;39.90;17.95;;;;;;;3.32;53.69;101121.56;1723000;81;21340;-79
2021/04/11 01:05:41;;;;;;;36.23;18.55;;;;;;;3.33;53.62;101127.83;1722548;82;21182;-79
2021/04/11 01:08:48;;;;;;;39.38;18.12;;;;;;;3.32;53.66;101125.63;1743490;81;21214;-79
2021/04/11 01:11:53;;;;;;;48.68;18.07;;;;;;;3.31;53.70;101126.60;1743497;81;21670;-79
2021/04/11 01:15:01;;;;;;;36.50;19.27;;;;;;;3.31;53.73;101126.60;1744331;82;21731;-79
2021/04/11 01:18:06;;;;;;;38.83;19.23;;;;;;;3.31;53.78;101129.30;1744828;81;21304;-79
2021/04/11 01:21:39;;;;;;;35.55;16.67;;;;;;;3.28;53.79;101124.59;1745047;82;21816;-79
2021/04/11 01:24:58;;;;;;;55.88;21.37;;;;;;;3.26;53.91;101127.42;1745126;82;21285;-80
2021/04/11 01:28:05;;;;;;;46.15;22.90;;;;;;;3.24;53.98;101130.70;1744956;81;21320;-80
2021/04/11 01:31:13;;;;;;;49.08;22.35;;;;;;;3.16;54.11;101126.34;1744977;82;21162;-80
2021/04/11 01:34:19;;;;;;;52.58;22.42;;;;;;;3.08;54.30;101120.61;1744944;82;21181;-80
2021/04/11 01:37:25;;;;;;;42.20;21.48;;;;;;;3.02;54.46;101117.86;1744999;81;21774;-80
2021/04/11 01:40:59;;;;;;;42.85;21.15;;;;;;;3.01;54.60;101116.59;1744949;82;21801;-80
2021/04/11 01:44:05;;;;;;;49.80;21.42;;;;;;;2.98;54.70;101120.89;1743394;81;21201;-80
2021/04/11 01:47:12;;;;;;;42.23;21.10;;;;;;;2.97;54.82;101121.87;1743528;81;21701;-79
2021/04/11 01:50:19;;;;;;;41.53;21.15;;;;;;;2.93;54.96;101111.75;1745041;82;21715;-80
2021/04/11 01:53:25;;;;;;;39.73;18.90;;;;;;;2.90;55.01;101109.74;1744994;81;21208;-80
2021/04/11 01:56:30;;;;;;;40.45;19.73;;;;;;;2.89;55.09;101106.18;1744996;82;21285;-80
2021/04/11 01:59:35;;;;;;;47.65;22.37;;;;;;;2.89;55.13;101104.83;1744957;81;21834;-80
2021/04/11 02:02:41;;;;;;;49.13;21.55;;;;;;;2.89;55.24;101106.67;1722653;82;21329;-80
2021/04/11 02:05:48;;;;;;;47.80;21.45;;;;;;;2.85;55.32;101106.02;1717424;82;21770;-80
2021/04/11 02:09:02;;;;;;;51.58;21.35;;;;;;;2.84;55.44;101102.94;1745008;81;21844;-79
2021/04/11 02:12:19;;;;;;;44.58;20.17;;;;;;;2.85;55.55;101103.31;1738532;81;21902;-80
2021/04/11 02:15:31;;;;;;;50.43;21.52;;;;;;;2.82;55.57;101098.11;1745178;82;21759;-79
2021/04/11 02:18:37;;;;;;;41.70;21.40;;;;;;;2.81;55.68;101102.66;1744980;81;21673;-79
2021/04/11 02:21:42;;;;;;;43.25;19.12;;;;;;;2.81;55.74;101112.59;1714984;81;21200;-79
2021/04/11 02:24:49;;;;;;;42.05;19.20;;;;;;;2.80;55.74;101126.59;1714790;83;21291;-80
2021/04/11 02:27:54;;;;;;;44.85;18.35;;;;;;;2.81;55.81;101133.73;1714844;82;21319;-80
2021/04/11 02:31:17;;;;;;;41.20;18.95;;;;;;;2.80;55.82;101130.66;1714757;83;21205;-80
2021/04/11 02:34:32;;;;;;;52.88;21.15;;;;;;;2.83;55.71;101130.94;1714955;83;21152;-79
2021/04/11 02:37:40;;;;;;;41.33;19.35;;;;;;;2.81;55.60;101138.27;1714825;82;21311;-80
2021/04/11 02:40:51;;;;;;;39.08;19.75;;;;;;;2.79;55.57;101138.38;1714766;83;21360;-80
2021/04/11 02:43:58;;;;;;;43.70;20.50;;;;;;;2.76;55.63;101139.94;1714711;82;21327;-80
2021/04/11 02:47:05;;;;;;;44.53;20.45;;;;;;;2.75;55.75;101146.81;1714686;82;21295;-79
2021/04/11 02:50:15;;;;;;;47.75;21.25;;;;;;;2.69;55.80;101137.30;1714864;83;21272;-79
2021/04/11 02:53:27;;;;;;;40.92;20.55;;;;;;;2.66;55.87;101121.78;1714760;82;21347;-80
2021/04/11 02:56:34;;;;;;;44.55;20.52;;;;;;;2.63;55.93;101122.84;1714904;83;21299;-80
2021/04/11 02:59:42;;;;;;;48.65;20.35;;;;;;;2.62;56.05;101128.36;1714816;83;21324;-80
2021/04/11 03:02:48;;;;;;;46.95;21.15;;;;;;;2.60;56.12;101127.61;1714330;82;21303;-80
2021/04/11 03:05:54;;;;;;;50.38;22.52;;;;;;;2.59;56.21;101130.80;1714875;83;21810;-80
2021/04/11 03:09:02;;;;;;;47.00;20.60;;;;;;;2.58;56.35;101129.05;1714923;82;21821;-80
2021/04/11 03:12:08;;;;;;;46.68;20.00;;;;;;;2.56;56.42;101125.11;1714768;82;21868;-80
2021/04/11 03:15:14;;;;;;;46.13;20.45;;;;;;;2.55;56.50;101117.98;1713461;83;21168;-80
2021/04/11 03:18:20;;;;;;;44.45;21.02;;;;;;;2.55;56.60;101121.17;1714715;82;21315;-79
2021/04/11 03:21:25;;;;;;;44.50;20.85;;;;;;;2.50;56.79;101123.33;1728879;80;21348;-79
2021/04/11 03:24:32;;;;;;;49.70;21.20;;;;;;;2.48;56.97;101127.95;1745006;82;21169;-80
2021/04/11 03:27:46;;;;;;;43.20;21.12;;;;;;;2.47;57.11;101137.02;1744975;81;21245;-79
2021/04/11 03:31:04;;;;;;;47.05;19.23;;;;;;;2.55;57.22;101138.73;1744927;82;21727;-80
2021/04/11 03:34:11;;;;;;;42.98;23.32;;;;;;;2.65;57.17;101135.77;1745087;82;21830;-80
2021/04/11 03:37:18;;;;;;;44.93;21.87;;;;;;;2.76;56.99;101143.98;1744816;81;21767;-80
2021/04/11 03:40:32;;;;;;;52.20;22.45;;;;;;;2.87;56.78;101153.19;1744920;82;21170;-80
2021/04/11 03:43:49;;;;;;;48.92;21.73;;;;;;;2.96;56.60;101155.25;1744956;81;21747;-79
2021/04/11 03:47:21;;;;;;;41.10;19.55;;;;;;;3.07;56.38;101155.38;1744804;81;21182;-79
2021/04/11 03:50:29;;;;;;;;;;;;;;;3.20;56.13;101156.72;1747421;82;21340;-79
2021/04/11 03:53:47;;;;;;;43.50;19.00;;;;;;;3.30;55.97;101165.44;1744235;81;20654;-80
2021/04/11 03:57:07;;;;;;;42.83;20.08;;;;;;;3.40;55.86;101170.20;1744871;80;21284;-80
2021/04/11 04:00:14;;;;;;;32.85;17.00;;;;;;;3.52;55.80;101178.77;1745000;82;21744;-80
2021/04/11 04:03:25;;;;;;;42.62;21.82;;;;;;;3.62;55.77;101176.27;1744058;81;21356;-80
2021/04/11 04:06:37;;;;;;;40.65;21.12;;;;;;;3.69;55.82;101178.43;1745094;82;21158;-80
2021/04/11 04:09:44;;;;;;;50.70;21.30;;;;;;;3.79;55.78;101172.72;1743532;82;21232;-80
2021/04/11 04:13:04;;;;;;;40.00;21.07;;;;;;;3.90;55.66;101173.28;1744280;81;21190;-80
2021/04/11 04:16:19;;;;;;;42.98;20.45;;;;;;;4.03;55.70;101174.11;1744884;82;21843;-80
2021/04/11 04:19:31;;;;;;;37.48;17.87;;;;;;;4.16;55.83;101175.43;1744837;82;21887;-80
2021/04/11 04:22:51;;;;;;;37.00;18.87;;;;;;;4.31;55.88;101175.63;1744355;81;21312;-80
2021/04/11 04:26:20;;;;;;;40.33;18.27;;;;;;;4.46;56.06;101171.39;1745045;82;21807;-80
2021/04/11 04:29:33;;;;;;;39.78;16.82;;;;;;;4.61;55.82;101176.53;1745058;82;21305;-80
2021/04/11 04:33:29;;;;;;;34.33;16.10;;;;;;;4.80;55.72;101181.41;1745010;81;21222;-80
2021/04/11 04:36:53;;;;;;;36.88;14.83;;;;;;;4.98;55.43;101174.17;1745083;82;21285;-80
2021/04/11 04:40:28;;;;;;;31.80;15.23;;;;;;;5.20;55.09;101176.94;1745021;82;21332;-80
2021/04/11 04:43:43;;;;;;;45.15;17.25;;;;;;;5.38;54.14;101174.12;1744964;81;21300;-80
2021/04/11 04:47:06;;;;;;;37.78;17.42;;;;;;;5.58;53.21;101166.23;1745025;81;21878;-80
2021/04/11 04:50:29;;;;;;;36.98;14.60;;;;;;;5.77;52.84;101157.47;1725501;82;21281;-80
2021/04/11 04:54:23;;;;;;;25.97;13.05;;;;;;;5.94;52.62;101160.21;1745137;81;21728;-80
2021/04/11 04:57:43;;;;;;;25.52;13.45;;;;;;;6.13;51.99;101154.98;1709566;83;21322;-80
2021/04/11 05:01:05;;;;;;;26.17;13.03;;;;;;;6.35;51.45;101154.93;1709415;84;21356;-80
2021/04/11 05:04:18;;;;;;;27.70;14.33;;;;;;;6.55;50.67;101160.03;1744873;82;21297;-80
2021/04/11 05:07:28;;;;;;;26.55;13.08;;;;;;;6.73;50.91;101163.05;1745110;81;21348;-80
2021/04/11 05:10:45;;;;;;;31.35;14.47;;;;;;;6.87;50.28;101162.73;1745025;82;21321;-80
2021/04/11 05:13:56;;;;;;;29.92;14.98;;;;;;;7.01;50.51;101166.10;1745025;81;21304;-80
2021/04/11 05:17:17;;;;;;;28.00;13.45;;;;;;;7.20;50.15;101147.20;1744871;81;21352;-80
2021/04/11 05:20:20;;;;;;;23.02;12.80;;;;;;;7.36;49.75;101139.41;1743455;82;21746;-80
2021/04/11 05:23:33;;;;;;;28.23;12.05;;;;;;;7.51;49.21;101130.88;1749192;81;21288;-80
2021/04/11 05:26:51;;;;;;;28.40;13.22;;;;;;;7.63;48.65;101126.56;1758790;81;21276;-80
2021/04/11 05:30:09;;;;;;;21.52;11.68;;;;;;;7.77;48.35;101121.25;1758719;81;21280;-80
2021/04/11 05:33:16;;;;;;;21.10;10.85;;;;;;;7.93;48.68;101117.98;1758694;80;21153;-80
2021/04/11 05:36:36;;;;;;;26.07;12.07;;;;;;;8.12;48.30;101129.42;1759032;81;21165;-80
2021/04/11 05:40:11;;;;;;;26.15;13.10;;;;;;;8.28;47.81;101124.30;1739304;81;21826;-80
2021/04/11 05:43:32;;;;;;;25.43;10.80;;;;;;;8.38;47.76;101130.66;1758932;80;21299;-80
2021/04/11 05:46:45;;;;;;;22.10;12.33;;;;;;;8.52;47.22;101148.45;1758842;81;21280;-80
2021/04/11 05:49:55;;;;;;;17.32;9.83;;;;;;;8.67;46.78;101155.20;1758663;81;21343;-81
2021/04/11 05:53:33;;;;;;;18.40;10.23;;;;;;;8.82;46.59;101156.13;1758837;80;21308;-81
2021/04/11 05:56:49;;;;;;;25.95;10.63;;;;;;;8.96;47.06;101157.91;1758961;81;21288;-81
2021/04/11 05:59:57;;;;;;;21.00;11.05;;;;;;;9.18;46.31;101153.15;1758225;81;21153;-80
2021/04/11 06:03:05;;;;;;;15.03;9.28;;;;;;;9.38;45.80;101153.95;1739954;81;21311;-80
2021/04/11 06:06:20;;;;;;;21.55;10.05;;;;;;;9.57;45.69;101154.39;1758879;81;21280;-81
2021/04/11 06:09:52;;;;;;;19.45;9.95;;;;;;;9.75;44.87;101162.67;1758888;81;21288;-81
2021/04/11 06:13:08;;;;;;;19.32;9.25;;;;;;;9.90;43.36;101162.52;1758869;80;21850;-81
2021/04/11 06:16:23;;;;;;;19.32;9.35;;;;;;;10.02;42.95;101170.00;1758988;81;21708;-81
2021/04/11 06:19:28;;;;;;;18.20;10.45;;;;;;;10.08;42.94;101174.88;1758556;81;21787;-80
2021/04/11 06:22:48;;;;;;;21.02;10.10;;;;;;;10.17;43.51;101182.16;1758834;80;21308;-81
2021/04/11 06:26:12;;;;;;;18.07;9.75;;;;;;;10.29;42.67;101180.10;1758804;81;21177;-81
2021/04/11 06:29:27;;;;;;;16.52;9.90;;;;;;;10.39;42.12;101188.59;1758856;81;21909;-81
2021/04/11 06:32:31;;;;;;;18.50;10.70;;;;;;;10.45;42.21;101192.61;1737530;81;21324;-81
2021/04/11 06:36:05;;;;;;;21.17;9.15;;;;;;;10.51;41.63;101172.83;1758954;81;21812;-81
2021/04/11 06:39:15;;;;;;;21.07;10.82;;;;;;;10.62;41.08;101182.17;1758862;81;21548;-81
2021/04/11 06:42:53;;;;;;;15.73;8.60;;;;;;;10.70;40.89;101189.61;1759137;80;21352;-81
2021/04/11 06:46:41;;;;;;;17.92;9.35;;;;;;;10.82;41.30;101188.86;1758771;81;21579;-81
2021/04/11 06:50:11;;;;;;;14.30;8.58;;;;;;;10.94;41.12;101185.73;1754865;81;21335;-81
2021/04/11 06:53:54;;;;;;;16.80;8.90;;;;;;;11.05;40.62;101193.34;1758746;80;21858;-81
2021/04/11 06:57:32;;;;;;;14.13;8.15;;;;;;;11.10;39.87;101189.11;1758805;80;21708;-81
2021/04/11 07:00:47;;;;;;;17.15;8.68;;;;;;;11.10;39.67;101186.88;1758796;81;22111;-81
2021/04/11 07:04:30;;;;;;;14.28;7.47;;;;;;;11.14;39.24;101195.13;1758655;80;21237;-81
2021/04/11 07:08:10;;;;;;;15.08;8.33;;;;;;;11.16;39.18;101210.91;1758811;80;21336;-81
2021/04/11 07:11:37;;;;;;;18.05;8.25;;;;;;;11.20;39.21;101186.30;1758856;81;21814;-81
2021/04/11 07:15:00;;;;;;;19.32;8.70;;;;;;;11.29;39.17;101188.57;1758771;81;21308;-81
2021/04/11 07:18:29;;;;;;;25.40;9.53;;;;;;;11.37;38.83;101192.75;1758744;80;21916;-81
2021/04/11 07:22:08;;;;;;;14.05;8.28;;;;;;;11.35;38.90;101169.64;1758891;81;21288;-81
2021/04/11 07:26:00;;;;;;;13.05;8.40;;;;;;;11.37;40.11;101171.69;1756527;81;21665;-81
2021/04/11 07:29:25;;;;;;;19.17;8.03;;;;;;;11.54;39.10;101181.41;1758875;80;21340;-81
2021/04/11 07:33:00;;;;;;;16.05;8.50;;;;;;;11.70;37.65;101176.01;1758799;80;21307;-81
2021/04/11 07:36:46;;;;;;;16.77;8.68;;;;;;;11.75;37.47;101183.23;1758273;81;21744;-81
2021/04/11 07:40:07;;;;;;;15.05;7.85;;;;;;;11.73;37.63;101179.81;1738884;81;21284;-81
2021/04/11 07:44:03;;;;;;;18.27;6.72;;;;;;;11.78;37.27;101179.66;1758525;80;21322;-81
2021/04/11 07:47:36;;;;;;;14.20;7.40;;;;;;;11.81;36.58;101178.97;1758892;80;21316;-81
2021/04/11 07:51:15;;;;;;;13.48;7.42;;;;;;;11.87;36.06;101172.37;1758668;81;21185;-81
2021/04/11 07:55:05;;;;;;;19.42;7.72;;;;;;;11.89;35.90;101160.72;1758702;81;21849;-81
2021/04/11 07:58:16;;;;;;;;;;;;;;;11.99;36.73;101171.56;1761338;80;21323;-81
2021/04/11 08:01:38;;;;;;;;;;;;;;;12.13;36.10;101169.56;1760601;81;20422;-81
2021/04/11 08:05:19;;;;;;;17.95;8.23;;;;;;;12.12;36.33;101156.02;1668747;86;20224;-81
2021/04/11 08:09:03;;;;;;;14.58;7.87;;;;;;;12.14;36.78;101149.84;1737658;81;21323;-81
2021/04/11 08:12:39;;;;;;;13.95;8.55;;;;;;;12.21;37.00;101144.91;1758713;80;21850;-81
2021/04/11 08:16:17;;;;;;;25.23;8.50;;;;;;;12.30;35.87;101131.23;1758919;81;22178;-81
2021/04/11 08:19:46;;;;;;;13.48;8.43;;;;;;;12.31;36.69;101136.54;1737505;81;21319;-81
2021/04/11 08:23:16;;;;;;;18.35;8.15;;;;;;;12.44;35.83;101133.31;1758624;80;21320;-81
2021/04/11 08:26:56;;;;;;;17.60;7.95;;;;;;;12.49;35.65;101116.69;1749068;81;21292;-81
2021/04/11 08:30:12;;;;;;;11.43;7.10;;;;;;;12.59;35.45;101130.25;1700372;81;21201;-81
2021/04/11 08:33:54;;;;;;;13.93;7.53;;;;;;;12.64;35.44;101097.66;1771334;79;21819;-81
2021/04/11 08:37:10;;;;;;;15.80;7.42;;;;;;;12.67;34.27;101089.61;1708499;83;21413;-81
2021/04/11 08:40:39;;;;;;;12.33;6.75;;;;;;;12.75;34.21;101087.73;1774684;81;21269;-81
2021/04/11 08:44:15;;;;;;;13.00;7.03;;;;;;;12.76;33.31;101110.03;1773197;81;21784;-81
2021/04/11 08:48:14;;;;;;;22.87;7.70;;;;;;;12.70;33.93;101081.02;1773211;81;22491;-81
2021/04/11 08:51:56;;;;;;;14.80;7.15;;;;;;;12.75;33.17;101092.33;1773225;81;21349;-81
2021/04/11 08:55:50;;;;;;;14.40;7.03;;;;;;;12.72;33.65;101086.69;1773347;81;21852;-81
2021/04/11 08:59:13;;;;;;;17.77;7.47;;;;;;;12.83;34.69;101071.75;1772021;80;21248;-81
2021/04/11 09:02:39;;;;;;;11.55;5.97;;;;;;;12.90;33.61;101068.67;1773827;81;21206;-80
2021/04/11 09:06:04;;;;;;;9.18;6.50;;;;;;;12.89;32.60;101071.08;1748879;81;21293;-80
2021/04/11 09:09:40;;;;;;;15.08;6.47;;;;;;;12.98;33.43;101064.52;1759622;81;21282;-80
2021/04/11 09:13:31;;;;;;;13.78;7.03;;;;;;;13.10;33.81;101066.92;1773815;81;21317;-81
2021/04/11 09:17:01;;;;;;;20.15;7.28;;;;;;;13.10;33.44;101062.28;1774049;81;21269;-81
2021/04/11 09:20:50;;;;;;;10.58;6.92;;;;;;;13.12;34.13;101069.82;1774077;81;21285;-80
2021/04/11 09:24:05;;;;;;;14.20;6.67;;;;;;;13.26;34.08;101069.66;1769089;81;21293;-81
2021/04/11 09:27:46;;;;;;;11.85;6.60;;;;;;;13.29;32.98;101079.78;1758478;80;21283;-80
2021/04/11 09:31:22;;;;;;;12.93;7.03;;;;;;;13.33;33.29;101078.92;1681170;85;21857;-80
2021/04/11 09:34:50;;;;;;;12.60;6.83;;;;;;;13.38;32.35;101071.01;1742933;82;21161;-80
2021/04/11 09:38:34;;;;;;;12.40;7.10;;;;;;;13.45;32.01;101052.77;1742737;82;21279;-80
2021/04/11 09:42:15;;;;;;;14.33;7.47;;;;;;;13.48;32.20;101029.06;1742853;82;21279;-80
2021/04/11 09:45:56;;;;;;;11.20;6.40;;;;;;;13.52;31.34;101008.44;1742217;82;21327;-80
2021/04/11 09:49:22;;;;;;;16.42;7.30;;;;;;;13.62;32.03;100979.87;1741531;82;21204;-80
2021/04/11 09:53:10;;;;;;;12.88;6.58;;;;;;;13.72;30.85;100975.86;1731383;82;21264;-81
2021/04/11 09:56:24;;;;;;;13.30;6.40;;;;;;;13.69;30.67;100984.98;1742899;82;21272;-81
2021/04/11 10:00:09;;;;;;;10.38;6.17;;;;;;;13.67;31.25;100981.56;1741341;82;21193;-80
2021/04/11 10:03:36;;;;;;;10.98;6.08;;;;;;;13.73;30.56;101002.30;1742961;82;21304;-81
2021/04/11 10:06:57;;;;;;;12.45;6.12;;;;;;;13.75;30.20;100992.00;1742556;82;21279;-80
2021/04/11 10:10:22;;;;;;;11.60;5.78;;;;;;;13.79;30.36;100974.64;1742780;82;21273;-80
2021/04/11 10:13:36;;;;;;;14.05;5.60;;;;;;;13.91;30.46;100987.44;1719442;82;21833;-80
2021/04/11 10:17:09;;;;;;;9.20;5.75;;;;;;;13.95;29.61;100992.39;1742837;82;21169;-81
2021/04/11 10:20:46;;;;;;;13.58;6.50;;;;;;;13.93;30.33;100991.73;1742889;82;21807;-81
2021/04/11 10:24:17;;;;;;;11.45;6.40;;;;;;;13.92;30.47;100983.64;1742939;82;21315;-81
2021/04/11 10:28:08;;;;;;;10.78;5.87;;;;;;;14.01;31.33;100984.77;1751207;80;21317;-81
2021/04/11 10:31:54;;;;;;;13.72;6.20;;;;;;;14.18;31.64;100964.89;1774027;81;21273;-80
2021/04/11 10:35:20;;;;;;;9.95;6.20;;;;;;;14.37;30.07;100970.41;1774013;81;21174;-80
2021/04/11 10:38:48;;;;;;;15.03;6.12;;;;;;;14.38;29.94;100950.62;1724920;81;21178;-80
2021/04/11 10:42:10;;;;;;;29.65;16.87;;;;;;;14.38;30.50;100945.98;1747315;81;21839;-80
2021/04/11 10:45:52;;;;;;;22.45;12.28;;;;;;;14.49;30.51;100960.72;1774040;81;21166;-80
2021/04/11 10:49:29;;;;;;;17.02;8.68;;;;;;;14.56;30.02;100963.05;1773992;81;21301;-80
2021/04/11 10:53:03;;;;;;;15.32;5.53;;;;;;;14.55;30.99;100951.70;1774077;81;21266;-80
2021/04/11 10:56:40;;;;;;;9.05;5.15;;;;;;;14.53;29.92;100948.27;1773995;81;21325;-80
2021/04/11 11:00:01;;;;;;;12.40;5.03;;;;;;;14.47;29.80;100936.60;1773892;81;21202;-80
2021/04/11 11:03:43;;;;;;;13.03;5.03;;;;;;;14.54;29.30;100934.86;1748062;81;21332;-80
2021/04/11 11:07:27;;;;;;;12.78;5.33;;;;;;;14.61;29.15;100950.62;1773840;79;21249;-80
2021/04/11 11:11:08;;;;;;;12.53;5.30;;;;;;;14.65;29.43;100929.41;1773940;81;21163;-80
2021/04/11 11:14:46;;;;;;;7.75;4.40;;;;;;;14.74;29.17;100948.08;1773958;81;21158;-80
2021/04/11 11:18:21;;;;;;;10.35;5.25;;;;;;;14.74;28.27;100925.53;1773413;81;21317;-80
2021/04/11 11:21:44;;;;;;;9.60;5.80;;;;;;;14.78;29.54;100939.78;1774114;81;21752;-80
2021/04/11 11:25:01;;;;;;;12.05;4.95;;;;;;;14.91;29.36;100916.55;1773957;81;21166;-80
2021/04/11 11:28:32;;;;;;;8.55;4.17;;;;;;;15.02;29.12;100916.09;1773446;80;21314;-80
2021/04/11 11:32:06;;;;;;;8.33;4.28;;;;;;;15.06;28.69;100921.55;1788368;80;21854;-80
2021/04/11 11:35:20;;;;;;;14.75;4.85;;;;;;;15.09;28.50;100911.50;1737811;80;21819;-80
2021/04/11 11:38:44;;;;;;;6.20;4.28;;;;;;;15.16;29.16;100917.65;1787654;80;21878;-80
2021/04/11 11:42:13;;;;;;;8.83;4.60;;;;;;;15.24;28.47;100927.17;1749628;80;21289;-80
2021/04/11 11:45:38;;;;;;;9.48;5.10;;;;;;;15.23;28.72;100905.65;1788343;80;21688;-80
2021/04/11 11:48:57;;;;;;;23.38;5.15;;;;;;;15.22;28.17;100906.70;1787129;80;22186;-80
2021/04/11 11:52:25;;;;;;;7.40;4.47;;;;;;;15.21;28.87;100902.25;1774081;80;21787;-80
2021/04/11 11:55:38;;;;;;;6.00;4.05;;;;;;;15.27;28.26;100892.34;1788271;80;21213;-80
2021/04/11 11:58:51;;;;;;;11.05;4.25;;;;;;;15.26;28.25;100886.52;1788306;80;21318;-80
2021/04/11 12:02:01;;;;;;;10.05;4.30;;;;;;;15.31;28.56;100883.50;1788163;80;21293;-80
2021/04/11 12:05:46;;;;;;;10.43;4.58;;;;;;;15.38;28.15;100873.92;1788339;80;21193;-80
2021/04/11 12:09:06;;;;;;;8.55;4.60;;;;;;;15.56;28.81;100879.01;1787530;80;21835;-80
2021/04/11 12:12:33;;;;;;;7.87;4.12;;;;;;;15.71;27.25;100887.26;1786772;80;21205;-80
2021/04/11 12:15:43;;;;;;;10.58;4.33;;;;;;;15.77;28.05;100852.87;1788360;80;21850;-80
2021/04/11 12:18:53;;;;;;;;;;;;;;;15.84;27.88;100859.28;1771267;80;21280;-80
2021/04/11 12:22:05;;;;;;;9.43;4.12;;;;;;;15.91;27.73;100860.75;1788270;80;20278;-80
2021/04/11 12:25:18;;;;;;;12.73;4.42;;;;;;;15.95;26.84;100853.78;1787922;80;21169;-80
2021/04/11 12:28:30;;;;;;;6.42;4.03;;;;;;;15.99;27.50;100836.28;1788266;80;21649;-80
2021/04/11 12:31:47;;;;;;;13.00;4.28;;;;;;;16.13;27.23;100840.02;1788234;80;21863;-80
2021/04/11 12:35:25;;;;;;;9.88;4.12;;;;;;;16.13;26.86;100833.11;1788283;80;21285;-80
2021/04/11 12:38:56;;;;;;;7.53;4.28;;;;;;;16.06;26.60;100832.54;1788118;80;21300;-80
2021/04/11 12:42:28;;;;;;;8.48;4.53;;;;;;;16.06;26.96;100822.03;1786734;80;21194;-80
2021/04/11 12:45:41;;;;;;;8.70;4.60;;;;;;;16.07;27.24;100828.72;1788345;80;21281;-80
2021/04/11 12:49:10;;;;;;;7.70;3.60;;;;;;;16.02;26.87;100822.10;1788159;80;21335;-80
2021/04/11 12:52:39;;;;;;;7.47;3.87;;;;;;;15.97;27.10;100822.70;1788597;80;21336;-80
2021/04/11 12:55:59;;;;;;;7.55;4.37;;;;;;;15.93;27.08;100810.35;1788220;80;21770;-80
2021/04/11 12:59:15;;;;;;;7.05;3.77;;;;;;;15.91;27.13;100806.95;1788333;80;21276;-80
2021/04/11 13:02:27;;;;;;;6.22;3.47;;;;;;;15.94;27.35;100794.65;1788285;80;21205;-80
2021/04/11 13:05:48;;;;;;;5.70;3.50;;;;;;;15.96;27.65;100799.45;1788421;80;21277;-80
2021/04/11 13:09:10;;;;;;;6.10;3.75;;;;;;;15.95;28.22;100808.27;1788306;80;21245;-80
2021/04/11 13:12:31;;;;;;;7.10;3.62;;;;;;;15.93;28.21;100800.70;1735686;80;21190;-80
2021/04/11 13:16:04;;;;;;;6.85;4.05;;;;;;;15.95;28.54;100802.75;1788481;80;21193;-80
2021/04/11 13:19:15;;;;;;;7.78;4.55;;;;;;;15.95;27.84;100793.59;1770577;80;21253;-80
2021/04/11 13:22:28;;;;;;;8.08;4.55;;;;;;;15.95;28.31;100800.48;1788534;80;21316;-80
2021/04/11 13:25:53;;;;;;;10.48;4.35;;;;;;;15.96;28.32;100793.41;1788309;80;21193;-80
2021/04/11 13:29:05;;;;;;;6.80;4.22;;;;;;;15.96;27.99;100776.86;1788394;80;21341;-80
2021/04/11 13:32:26;;;;;;;7.10;4.10;;;;;;;15.98;27.89;100786.30;1764185;81;21152;-81
2021/04/11 13:36:10;;;;;;;13.45;4.30;;;;;;;15.94;27.53;100795.50;1764307;81;21797;-80
2021/04/11 13:39:35;;;;;;;7.72;3.85;;;;;;;15.93;28.11;100774.48;1764283;81;21907;-80
2021/04/11 13:43:20;;;;;;;8.80;4.87;;;;;;;15.91;27.86;100785.41;1764236;81;21966;-80
2021/04/11 13:46:38;;;;;;;11.85;4.75;;;;;;;15.86;27.66;100779.65;1764388;81;21266;-80
2021/04/11 13:49:59;;;;;;;9.90;4.93;;;;;;;15.86;27.24;100795.67;1764517;81;21148;-80
2021/04/11 13:53:07;;;;;;;7.12;4.45;;;;;;;15.87;27.12;100787.71;1764220;81;21310;-80
2021/04/11 13:56:50;;;;;;;8.30;4.33;;;;;;;15.84;27.56;100797.22;1764276;81;21781;-80
2021/04/11 14:00:21;;;;;;;8.73;4.70;;;;;;;15.81;27.68;100799.55;1764252;81;21813;-80
2021/04/11 14:03:42;;;;;;;24.63;16.27;;;;;;;15.77;27.58;100792.72;1764259;81;21912;-80
2021/04/11 14:07:02;;;;;;;8.78;4.78;;;;;;;15.73;27.45;100776.23;1764268;81;21164;-80
2021/04/11 14:10:17;;;;;;;;;;;;;;;15.73;27.68;100775.70;1765497;80;21160;-80
2021/04/11 14:13:35;;;;;;;8.65;4.78;;;;;;;15.79;27.01;100778.19;1764308;81;20203;-80
2021/04/11 14:16:57;;;;;;;8.23;4.00;;;;;;;15.79;27.33;100769.92;1762537;81;21158;-80
2021/04/11 14:20:37;;;;;;;8.28;4.40;;;;;;;15.77;27.73;100763.77;1764219;81;21295;-80
2021/04/11 14:24:12;;;;;;;8.58;4.22;;;;;;;15.77;27.19;100773.41;1764186;81;21302;-80
2021/04/11 14:27:40;;;;;;;7.40;4.70;;;;;;;15.73;27.03;100770.72;1764228;81;21307;-80
2021/04/11 14:31:15;;;;;;;14.33;4.28;;;;;;;15.69;27.90;100770.79;1765934;80;21160;-80
2021/04/11 14:34:48;;;;;;;13.98;5.20;;;;;;;15.63;26.99;100763.28;1774082;81;21285;-80
2021/04/11 14:38:22;;;;;;;10.10;5.33;;;;;;;15.57;27.39;100763.03;1774035;81;21808;-80
2021/04/11 14:41:36;;;;;;;7.50;3.80;;;;;;;15.52;27.28;100768.26;1773841;81;21190;-80
2021/04/11 14:44:50;;;;;;;7.08;4.50;;;;;;;15.48;27.00;100772.98;1773982;81;21594;-80
2021/04/11 14:48:01;;;;;;;8.08;3.85;;;;;;;15.41;27.39;100766.56;1773981;81;21197;-80
2021/04/11 14:51:30;;;;;;;9.43;5.25;;;;;;;15.37;27.26;100775.75;1774004;81;21309;-80
2021/04/11 14:55:04;;;;;;;8.95;4.30;;;;;;;15.34;27.79;100769.27;1774175;81;21317;-80
2021/04/11 14:58:21;;;;;;;9.13;4.12;;;;;;;15.30;27.79;100778.98;1763351;81;21194;-80
2021/04/11 15:01:46;;;;;;;9.25;4.20;;;;;;;15.26;27.42;100766.63;1773668;81;21807;-80
2021/04/11 15:05:29;;;;;;;6.42;3.12;;;;;;;15.21;27.89;100775.48;1774084;81;21170;-80
2021/04/11 15:08:51;;;;;;;7.25;3.83;;;;;;;15.14;27.58;100776.45;1773997;81;21744;-80
2021/04/11 15:12:38;;;;;;;5.75;3.12;;;;;;;15.07;27.97;100764.84;1773910;81;21301;-80
2021/04/11 15:16:14;;;;;;;6.95;3.10;;;;;;;15.04;27.94;100774.86;1763530;81;21922;-80
2021/04/11 15:19:55;;;;;;;5.08;2.95;;;;;;;14.99;28.46;100762.20;1774094;81;22165;-80
2021/04/11 15:23:30;;;;;;;4.53;2.95;;;;;;;14.94;28.82;100761.92;1773985;81;21206;-80
2021/04/11 15:26:42;;;;;;;6.55;3.20;;;;;;;14.86;28.86;100757.91;1773902;81;21724;-80
2021/04/11 15:29:59;;;;;;;7.10;2.98;;;;;;;14.81;29.33;100756.25;1774093;81;21174;-80
2021/04/11 15:33:14;;;;;;;5.05;2.92;;;;;;;14.75;29.53;100742.73;1780421;80;21158;-80